KAR442 URSS-UWLL
Flight info
| Callsign | KAR442 |
|---|---|
| Flight time | 1h 50m |
| Altitude | 34000 |
| Route | ADNE1S ADNET W79 NZ/K0824F360 B145 ER G128 ST G900 OBABI/K0846F370 G900 KR P135 DAFOS T789 NEPNI NEPN1E |
| Aircraft | B739/M-DGV/A |
Departure
| Time | 2026-04-30 18:58 |
|---|---|
| Airport | Sochi International Airport (URSS) |
Arrival
| Time | 2026-04-30 20:48 |
|---|---|
| Airport | Ulyanovsk Baratayevka Airport (UWLL) |
| Time | Latitude | Longitude | Altitude | Speed | Heading |
|---|---|---|---|---|---|
| 2026-04-30 18:26 | 43.44789 | 39.94317 | 58 ft | 0 kts | 334° |
| 2026-04-30 18:47 | 43.44783 | 39.94320 | 58 ft | 2 kts | 334° |
| 2026-04-30 18:47 | 43.44770 | 39.94329 | 57 ft | 2 kts | 333° |
| 2026-04-30 18:47 | 43.44756 | 39.94339 | 57 ft | 2 kts | 334° |
| 2026-04-30 18:47 | 43.44743 | 39.94348 | 56 ft | 2 kts | 333° |
| 2026-04-30 18:48 | 43.44730 | 39.94357 | 55 ft | 2 kts | 333° |
| 2026-04-30 18:48 | 43.44716 | 39.94366 | 55 ft | 2 kts | 334° |
| 2026-04-30 18:48 | 43.44702 | 39.94373 | 54 ft | 2 kts | 359° |
| 2026-04-30 18:48 | 43.44687 | 39.94369 | 54 ft | 2 kts | 26° |
| 2026-04-30 18:49 | 43.44675 | 39.94356 | 53 ft | 2 kts | 55° |
| 2026-04-30 18:49 | 43.44669 | 39.94338 | 53 ft | 2 kts | 71° |
| 2026-04-30 18:49 | 43.44666 | 39.94329 | 53 ft | 0 kts | 67° |
| 2026-04-30 18:52 | 43.44667 | 39.94331 | 53 ft | 1 kts | 66° |
| 2026-04-30 18:52 | 43.44685 | 39.94388 | 54 ft | 10 kts | 64° |
| 2026-04-30 18:52 | 43.44732 | 39.94517 | 54 ft | 19 kts | 64° |
| 2026-04-30 18:52 | 43.44786 | 39.94676 | 55 ft | 16 kts | 65° |
| 2026-04-30 18:53 | 43.44836 | 39.94826 | 56 ft | 11 kts | 65° |
| 2026-04-30 18:53 | 43.44883 | 39.94965 | 56 ft | 20 kts | 65° |
| 2026-04-30 18:53 | 43.44917 | 39.95065 | 59 ft | 7 kts | 65° |
| 2026-04-30 18:53 | 43.44947 | 39.95153 | 59 ft | 13 kts | 62° |
| 2026-04-30 18:54 | 43.44997 | 39.95275 | 61 ft | 9 kts | 69° |
| 2026-04-30 18:54 | 43.44998 | 39.95280 | 62 ft | 0 kts | 71° |
| 2026-04-30 18:56 | 43.45000 | 39.95290 | 62 ft | 3 kts | 83° |
| 2026-04-30 18:57 | 43.44949 | 39.95361 | 63 ft | 7 kts | 155° |
| 2026-04-30 18:57 | 43.44907 | 39.95367 | 63 ft | 7 kts | 211° |
| 2026-04-30 18:57 | 43.44871 | 39.95295 | 62 ft | 12 kts | 244° |
| 2026-04-30 18:58 | 43.44267 | 39.93534 | 130 ft | 183 kts | 244° |
| 2026-04-30 18:58 | 43.43675 | 39.91828 | 758 ft | 214 kts | 244° |
| 2026-04-30 18:58 | 43.43079 | 39.89914 | 1662 ft | 222 kts | 256° |
| 2026-04-30 18:59 | 43.43358 | 39.85707 | 3063 ft | 237 kts | 290° |
| 2026-04-30 19:00 | 43.46223 | 39.79756 | 5044 ft | 271 kts | 308° |
| 2026-04-30 19:00 | 43.47378 | 39.77690 | 5844 ft | 276 kts | 307° |
| 2026-04-30 19:00 | 43.49719 | 39.73483 | 7598 ft | 280 kts | 306° |
| 2026-04-30 19:01 | 43.52089 | 39.69233 | 9291 ft | 282 kts | 304° |
| 2026-04-30 19:01 | 43.53317 | 39.67034 | 9907 ft | 285 kts | 304° |
| 2026-04-30 19:02 | 43.55750 | 39.62687 | 10088 ft | 283 kts | 304° |
| 2026-04-30 19:02 | 43.58178 | 39.58347 | 10100 ft | 288 kts | 304° |
| 2026-04-30 19:03 | 43.60895 | 39.53845 | 10959 ft | 325 kts | 314° |
| 2026-04-30 19:03 | 43.65176 | 39.51295 | 12406 ft | 350 kts | 348° |
| 2026-04-30 19:04 | 43.70109 | 39.51941 | 13975 ft | 370 kts | 12° |
| 2026-04-30 19:04 | 43.75038 | 39.54320 | 15581 ft | 380 kts | 16° |
| 2026-04-30 19:05 | 43.80111 | 39.56881 | 17102 ft | 389 kts | 15° |
| 2026-04-30 19:05 | 43.85250 | 39.59367 | 18596 ft | 397 kts | 14° |
| 2026-04-30 19:06 | 43.90564 | 39.61879 | 20024 ft | 405 kts | 13° |
| 2026-04-30 19:06 | 43.93318 | 39.63174 | 20735 ft | 410 kts | 13° |
| 2026-04-30 19:06 | 43.98828 | 39.65773 | 22167 ft | 415 kts | 13° |
| 2026-04-30 19:07 | 44.04357 | 39.68389 | 23459 ft | 422 kts | 13° |
| 2026-04-30 19:07 | 44.07132 | 39.69706 | 24042 ft | 426 kts | 13° |
| 2026-04-30 19:08 | 44.12833 | 39.72428 | 25197 ft | 434 kts | 13° |
| 2026-04-30 19:08 | 44.18613 | 39.75198 | 26331 ft | 440 kts | 12° |
| 2026-04-30 19:08 | 44.21517 | 39.76585 | 26869 ft | 443 kts | 12° |
| 2026-04-30 19:09 | 44.27441 | 39.79410 | 27751 ft | 453 kts | 12° |
| 2026-04-30 19:09 | 44.30452 | 39.80839 | 28362 ft | 453 kts | 12° |
| 2026-04-30 19:09 | 44.33487 | 39.82214 | 28795 ft | 455 kts | 9° |
| 2026-04-30 19:10 | 44.39674 | 39.83680 | 29708 ft | 444 kts | 352° |
| 2026-04-30 19:10 | 44.45634 | 39.82917 | 31313 ft | 421 kts | 342° |
| 2026-04-30 19:11 | 44.48522 | 39.82254 | 31856 ft | 418 kts | 341° |
| 2026-04-30 19:11 | 44.54288 | 39.80862 | 32616 ft | 424 kts | 341° |
| 2026-04-30 19:11 | 44.57211 | 39.80200 | 33174 ft | 422 kts | 341° |
| 2026-04-30 19:12 | 44.60090 | 39.79583 | 33694 ft | 420 kts | 341° |
| 2026-04-30 19:12 | 44.62965 | 39.78984 | 34097 ft | 420 kts | 341° |
| 2026-04-30 19:12 | 44.65874 | 39.78386 | 34130 ft | 425 kts | 341° |
| 2026-04-30 19:13 | 44.77619 | 39.76054 | 34141 ft | 424 kts | 342° |
| 2026-04-30 19:14 | 44.83455 | 39.74913 | 34142 ft | 424 kts | 341° |
| 2026-04-30 19:14 | 44.89336 | 39.73757 | 34144 ft | 424 kts | 341° |
| 2026-04-30 19:15 | 44.95173 | 39.72615 | 34150 ft | 424 kts | 341° |
| 2026-04-30 19:15 | 45.04115 | 39.71840 | 34154 ft | 451 kts | 1° |
| 2026-04-30 19:16 | 45.07178 | 39.73019 | 34161 ft | 463 kts | 9° |
| 2026-04-30 19:16 | 45.10216 | 39.74618 | 34160 ft | 466 kts | 13° |
| 2026-04-30 19:17 | 45.19252 | 39.79917 | 34155 ft | 469 kts | 13° |
| 2026-04-30 19:17 | 45.28379 | 39.85049 | 34158 ft | 466 kts | 12° |
| 2026-04-30 19:18 | 45.37435 | 39.89912 | 34154 ft | 465 kts | 11° |
| 2026-04-30 19:19 | 45.43544 | 39.93144 | 34158 ft | 465 kts | 11° |
| 2026-04-30 19:19 | 45.52679 | 39.97968 | 34158 ft | 464 kts | 11° |
| 2026-04-30 19:20 | 45.58704 | 40.01156 | 34158 ft | 464 kts | 11° |
| 2026-04-30 19:21 | 45.67830 | 40.06002 | 34160 ft | 466 kts | 11° |
| 2026-04-30 19:22 | 45.79920 | 40.12457 | 34164 ft | 463 kts | 11° |
| 2026-04-30 19:23 | 45.98117 | 40.22213 | 34166 ft | 466 kts | 11° |
| 2026-04-30 19:24 | 46.07214 | 40.27125 | 34156 ft | 465 kts | 11° |
| 2026-04-30 19:25 | 46.22328 | 40.35311 | 34146 ft | 464 kts | 11° |
| 2026-04-30 19:26 | 46.34383 | 40.41875 | 34153 ft | 461 kts | 11° |
| 2026-04-30 19:27 | 46.43405 | 40.46810 | 34165 ft | 461 kts | 11° |
| 2026-04-30 19:28 | 46.52381 | 40.51740 | 34155 ft | 459 kts | 11° |
| 2026-04-30 19:29 | 46.64379 | 40.58350 | 34170 ft | 460 kts | 11° |
| 2026-04-30 19:30 | 46.76352 | 40.64986 | 34152 ft | 460 kts | 11° |
| 2026-04-30 19:31 | 46.88298 | 40.71627 | 34189 ft | 459 kts | 12° |
| 2026-04-30 19:31 | 46.97252 | 40.76625 | 34152 ft | 460 kts | 12° |
| 2026-04-30 19:32 | 47.03239 | 40.79980 | 34172 ft | 459 kts | 12° |
| 2026-04-30 19:32 | 47.09226 | 40.83342 | 34165 ft | 461 kts | 12° |
| 2026-04-30 19:33 | 47.15239 | 40.86730 | 34189 ft | 459 kts | 12° |
| 2026-04-30 19:33 | 47.21213 | 40.90104 | 34177 ft | 459 kts | 13° |
| 2026-04-30 19:34 | 47.27152 | 40.93464 | 34173 ft | 459 kts | 12° |
| 2026-04-30 19:35 | 47.36096 | 40.98539 | 34186 ft | 459 kts | 13° |
| 2026-04-30 19:35 | 47.42054 | 41.01927 | 34170 ft | 457 kts | 13° |
| 2026-04-30 19:36 | 47.48009 | 41.05327 | 34167 ft | 459 kts | 13° |
| 2026-04-30 19:36 | 47.56965 | 41.10491 | 34171 ft | 460 kts | 15° |
| 2026-04-30 19:37 | 47.62713 | 41.14758 | 34184 ft | 467 kts | 22° |
| 2026-04-30 19:37 | 47.68323 | 41.19694 | 34164 ft | 470 kts | 24° |
| 2026-04-30 19:38 | 47.73918 | 41.24793 | 34178 ft | 467 kts | 25° |
| 2026-04-30 19:38 | 47.79488 | 41.29847 | 34170 ft | 468 kts | 24° |
| 2026-04-30 19:39 | 47.85051 | 41.34880 | 34177 ft | 467 kts | 24° |
| 2026-04-30 19:39 | 47.90601 | 41.39940 | 34172 ft | 467 kts | 25° |
| 2026-04-30 19:40 | 47.96148 | 41.45007 | 34179 ft | 467 kts | 25° |
| 2026-04-30 19:40 | 48.01710 | 41.50094 | 34168 ft | 469 kts | 25° |
| 2026-04-30 19:41 | 48.07251 | 41.55172 | 34171 ft | 466 kts | 25° |
| 2026-04-30 19:41 | 48.12810 | 41.60277 | 34175 ft | 465 kts | 25° |
| 2026-04-30 19:42 | 48.18314 | 41.65346 | 34183 ft | 465 kts | 26° |
| 2026-04-30 19:42 | 48.23802 | 41.70410 | 34169 ft | 466 kts | 26° |
| 2026-04-30 19:43 | 48.29361 | 41.75550 | 34164 ft | 467 kts | 26° |
| 2026-04-30 19:44 | 48.36888 | 41.84972 | 34175 ft | 476 kts | 45° |
| 2026-04-30 19:44 | 48.41013 | 41.92717 | 34177 ft | 478 kts | 49° |
| 2026-04-30 19:45 | 48.44994 | 42.00753 | 34176 ft | 478 kts | 50° |
| 2026-04-30 19:45 | 48.48958 | 42.08758 | 34166 ft | 477 kts | 50° |
| 2026-04-30 19:46 | 48.52936 | 42.16714 | 34167 ft | 476 kts | 49° |
| 2026-04-30 19:46 | 48.56955 | 42.24704 | 34153 ft | 477 kts | 49° |
| 2026-04-30 19:47 | 48.60970 | 42.32684 | 34168 ft | 475 kts | 49° |
| 2026-04-30 19:47 | 48.64945 | 42.40609 | 34148 ft | 474 kts | 49° |
| 2026-04-30 19:48 | 48.68953 | 42.48629 | 34164 ft | 474 kts | 49° |
| 2026-04-30 19:48 | 48.72908 | 42.56566 | 34142 ft | 473 kts | 49° |
| 2026-04-30 19:49 | 48.76905 | 42.64608 | 34148 ft | 472 kts | 49° |
| 2026-04-30 19:49 | 48.82757 | 42.76652 | 34141 ft | 474 kts | 51° |
| 2026-04-30 19:50 | 48.86664 | 42.84821 | 34150 ft | 473 kts | 51° |
| 2026-04-30 19:50 | 48.90528 | 42.92924 | 34126 ft | 472 kts | 51° |
| 2026-04-30 19:51 | 48.94370 | 43.00983 | 34133 ft | 472 kts | 51° |
| 2026-04-30 19:51 | 48.98198 | 43.09026 | 34129 ft | 472 kts | 51° |
| 2026-04-30 19:52 | 49.02057 | 43.17157 | 34132 ft | 472 kts | 51° |
| 2026-04-30 19:52 | 49.05909 | 43.25291 | 34130 ft | 471 kts | 51° |
| 2026-04-30 19:53 | 49.09739 | 43.33411 | 34130 ft | 470 kts | 51° |
| 2026-04-30 19:53 | 49.13576 | 43.41566 | 34131 ft | 470 kts | 51° |
| 2026-04-30 19:54 | 49.17379 | 43.49674 | 34131 ft | 471 kts | 51° |
| 2026-04-30 19:54 | 49.21206 | 43.57863 | 34128 ft | 470 kts | 52° |
| 2026-04-30 19:55 | 49.25140 | 43.65810 | 34131 ft | 467 kts | 46° |
| 2026-04-30 19:55 | 49.30047 | 43.72240 | 34137 ft | 462 kts | 31° |
| 2026-04-30 19:56 | 49.35458 | 43.77446 | 34138 ft | 456 kts | 26° |
| 2026-04-30 19:56 | 49.40931 | 43.82403 | 34133 ft | 457 kts | 26° |
| 2026-04-30 19:57 | 49.46377 | 43.87403 | 34131 ft | 457 kts | 27° |
| 2026-04-30 19:57 | 49.51864 | 43.92543 | 34120 ft | 457 kts | 28° |
| 2026-04-30 19:58 | 49.57173 | 43.97995 | 34110 ft | 458 kts | 31° |
| 2026-04-30 19:58 | 49.62363 | 44.03719 | 34122 ft | 459 kts | 32° |
| 2026-04-30 19:59 | 49.67541 | 44.09475 | 34115 ft | 459 kts | 32° |
| 2026-04-30 20:00 | 49.75386 | 44.18151 | 34157 ft | 468 kts | 32° |
| 2026-04-30 20:00 | 49.78073 | 44.21111 | 34267 ft | 474 kts | 32° |
| 2026-04-30 20:00 | 49.80745 | 44.24056 | 34644 ft | 471 kts | 32° |
| 2026-04-30 20:00 | 49.83377 | 44.26962 | 35031 ft | 470 kts | 32° |
| 2026-04-30 20:01 | 49.88707 | 44.32853 | 35633 ft | 469 kts | 32° |
| 2026-04-30 20:01 | 49.91388 | 44.35821 | 35930 ft | 469 kts | 32° |
| 2026-04-30 20:01 | 49.94076 | 44.38798 | 36180 ft | 470 kts | 33° |
| 2026-04-30 20:02 | 49.99422 | 44.44733 | 36759 ft | 469 kts | 33° |
| 2026-04-30 20:02 | 50.02087 | 44.47698 | 37017 ft | 469 kts | 33° |
| 2026-04-30 20:03 | 50.10110 | 44.56643 | 37095 ft | 470 kts | 33° |
| 2026-04-30 20:03 | 50.15435 | 44.62604 | 37094 ft | 470 kts | 33° |
| 2026-04-30 20:04 | 50.20783 | 44.68606 | 37087 ft | 470 kts | 34° |
| 2026-04-30 20:05 | 50.28749 | 44.77576 | 37086 ft | 470 kts | 34° |
| 2026-04-30 20:05 | 50.36674 | 44.86537 | 37083 ft | 469 kts | 34° |
| 2026-04-30 20:06 | 50.41965 | 44.92543 | 37078 ft | 469 kts | 34° |
| 2026-04-30 20:06 | 50.47218 | 44.98521 | 37076 ft | 468 kts | 34° |
| 2026-04-30 20:07 | 50.52507 | 45.04556 | 37074 ft | 469 kts | 34° |
| 2026-04-30 20:08 | 50.60415 | 45.13611 | 37068 ft | 469 kts | 34° |
| 2026-04-30 20:08 | 50.65673 | 45.19654 | 37063 ft | 468 kts | 34° |
| 2026-04-30 20:09 | 50.70963 | 45.25750 | 37049 ft | 468 kts | 34° |
| 2026-04-30 20:09 | 50.78849 | 45.34869 | 37040 ft | 468 kts | 34° |
| 2026-04-30 20:10 | 50.86691 | 45.43981 | 37038 ft | 468 kts | 35° |
| 2026-04-30 20:11 | 50.94443 | 45.53420 | 37039 ft | 468 kts | 37° |
| 2026-04-30 20:11 | 50.99553 | 45.59835 | 37031 ft | 468 kts | 37° |
| 2026-04-30 20:12 | 51.07694 | 45.68252 | 37020 ft | 467 kts | 25° |
| 2026-04-30 20:13 | 51.13554 | 45.72655 | 37018 ft | 464 kts | 23° |
| 2026-04-30 20:13 | 51.19459 | 45.76893 | 37016 ft | 465 kts | 23° |
| 2026-04-30 20:14 | 51.25301 | 45.81155 | 37022 ft | 464 kts | 23° |
| 2026-04-30 20:14 | 51.31171 | 45.85523 | 37018 ft | 465 kts | 24° |
| 2026-04-30 20:15 | 51.36997 | 45.89913 | 37016 ft | 465 kts | 24° |
| 2026-04-30 20:15 | 51.42858 | 45.94358 | 37015 ft | 465 kts | 24° |
| 2026-04-30 20:16 | 51.48713 | 45.98816 | 37020 ft | 464 kts | 24° |
| 2026-04-30 20:16 | 51.54503 | 46.03239 | 37029 ft | 463 kts | 24° |
| 2026-04-30 20:17 | 51.60277 | 46.07749 | 37029 ft | 464 kts | 25° |
| 2026-04-30 20:17 | 51.66036 | 46.12490 | 37023 ft | 463 kts | 26° |
| 2026-04-30 20:18 | 51.71750 | 46.17259 | 37026 ft | 463 kts | 26° |
| 2026-04-30 20:18 | 51.77507 | 46.22062 | 37026 ft | 463 kts | 26° |
| 2026-04-30 20:19 | 51.83231 | 46.26833 | 37008 ft | 463 kts | 26° |
| 2026-04-30 20:19 | 51.88958 | 46.31609 | 36999 ft | 463 kts | 26° |
| 2026-04-30 20:20 | 51.94666 | 46.36375 | 36983 ft | 461 kts | 26° |
| 2026-04-30 20:20 | 52.00383 | 46.41162 | 36971 ft | 462 kts | 26° |
| 2026-04-30 20:21 | 52.06081 | 46.45946 | 36967 ft | 462 kts | 26° |
| 2026-04-30 20:21 | 52.11826 | 46.50783 | 36969 ft | 463 kts | 26° |
| 2026-04-30 20:22 | 52.17567 | 46.55630 | 36962 ft | 463 kts | 26° |
| 2026-04-30 20:22 | 52.23282 | 46.60470 | 36964 ft | 464 kts | 26° |
| 2026-04-30 20:23 | 52.29028 | 46.65352 | 36967 ft | 464 kts | 27° |
| 2026-04-30 20:23 | 52.34717 | 46.70201 | 36961 ft | 463 kts | 27° |
| 2026-04-30 20:24 | 52.40443 | 46.75096 | 36962 ft | 464 kts | 27° |
| 2026-04-30 20:24 | 52.46150 | 46.79989 | 36848 ft | 460 kts | 27° |
| 2026-04-30 20:24 | 52.48956 | 46.82399 | 36538 ft | 455 kts | 27° |
| 2026-04-30 20:25 | 52.54563 | 46.87228 | 35436 ft | 457 kts | 27° |
| 2026-04-30 20:25 | 52.57395 | 46.89670 | 34756 ft | 461 kts | 27° |
| 2026-04-30 20:26 | 52.63076 | 46.94582 | 33498 ft | 463 kts | 27° |
| 2026-04-30 20:26 | 52.68808 | 46.99552 | 32451 ft | 464 kts | 27° |
| 2026-04-30 20:26 | 52.71645 | 47.02018 | 31889 ft | 465 kts | 28° |
| 2026-04-30 20:27 | 52.77342 | 47.06979 | 31072 ft | 457 kts | 28° |
| 2026-04-30 20:27 | 52.82816 | 47.11759 | 30796 ft | 434 kts | 28° |
| 2026-04-30 20:28 | 52.88114 | 47.16403 | 30085 ft | 427 kts | 28° |
| 2026-04-30 20:28 | 52.93333 | 47.20990 | 29244 ft | 422 kts | 28° |
| 2026-04-30 20:29 | 52.98473 | 47.25517 | 28466 ft | 416 kts | 29° |
| 2026-04-30 20:30 | 53.06027 | 47.32196 | 27240 ft | 406 kts | 30° |
| 2026-04-30 20:30 | 53.13446 | 47.38779 | 25901 ft | 396 kts | 30° |
| 2026-04-30 20:31 | 53.20729 | 47.45268 | 24365 ft | 389 kts | 31° |
| 2026-04-30 20:32 | 53.27851 | 47.51618 | 22906 ft | 378 kts | 30° |
| 2026-04-30 20:32 | 53.32476 | 47.55768 | 21848 ft | 374 kts | 31° |
| 2026-04-30 20:33 | 53.34754 | 47.57818 | 21265 ft | 374 kts | 31° |
| 2026-04-30 20:33 | 53.39351 | 47.61978 | 20161 ft | 370 kts | 31° |
| 2026-04-30 20:33 | 53.41627 | 47.64022 | 19879 ft | 362 kts | 31° |
| 2026-04-30 20:34 | 53.46044 | 47.67994 | 18851 ft | 358 kts | 31° |
| 2026-04-30 20:34 | 53.50503 | 47.71608 | 17940 ft | 354 kts | 25° |
| 2026-04-30 20:35 | 53.52779 | 47.73112 | 17509 ft | 352 kts | 23° |
| 2026-04-30 20:35 | 53.55053 | 47.74541 | 17080 ft | 348 kts | 23° |
| 2026-04-30 20:35 | 53.59563 | 47.77404 | 16217 ft | 342 kts | 24° |
| 2026-04-30 20:36 | 53.61778 | 47.78839 | 15795 ft | 339 kts | 23° |
| 2026-04-30 20:36 | 53.63965 | 47.80285 | 15368 ft | 336 kts | 22° |
| 2026-04-30 20:36 | 53.68276 | 47.83124 | 14512 ft | 331 kts | 24° |
| 2026-04-30 20:37 | 53.70389 | 47.84631 | 14052 ft | 330 kts | 28° |
| 2026-04-30 20:37 | 53.72426 | 47.86413 | 13548 ft | 329 kts | 32° |
| 2026-04-30 20:37 | 53.74419 | 47.88381 | 13015 ft | 329 kts | 34° |
| 2026-04-30 20:37 | 53.76358 | 47.90400 | 12421 ft | 330 kts | 34° |
| 2026-04-30 20:38 | 53.78337 | 47.92423 | 11812 ft | 332 kts | 34° |
| 2026-04-30 20:38 | 53.80309 | 47.94416 | 11216 ft | 331 kts | 34° |
| 2026-04-30 20:38 | 53.82262 | 47.96404 | 10628 ft | 330 kts | 33° |
| 2026-04-30 20:39 | 53.86208 | 48.00294 | 9413 ft | 320 kts | 33° |
| 2026-04-30 20:39 | 53.88104 | 48.02149 | 8813 ft | 311 kts | 32° |
| 2026-04-30 20:39 | 53.89951 | 48.03956 | 8230 ft | 302 kts | 32° |
| 2026-04-30 20:40 | 53.93499 | 48.07516 | 7042 ft | 290 kts | 34° |
| 2026-04-30 20:40 | 53.95228 | 48.09256 | 6522 ft | 283 kts | 33° |
| 2026-04-30 20:40 | 53.96898 | 48.10932 | 6005 ft | 277 kts | 33° |
| 2026-04-30 20:41 | 54.00161 | 48.14205 | 5060 ft | 264 kts | 33° |
| 2026-04-30 20:41 | 54.01730 | 48.15789 | 4618 ft | 257 kts | 33° |
| 2026-04-30 20:41 | 54.03299 | 48.17163 | 4225 ft | 252 kts | 23° |
| 2026-04-30 20:41 | 54.05038 | 48.17555 | 3829 ft | 252 kts | 354° |
| 2026-04-30 20:42 | 54.06613 | 48.16393 | 3527 ft | 249 kts | 324° |
| 2026-04-30 20:42 | 54.07814 | 48.14266 | 3266 ft | 243 kts | 309° |
| 2026-04-30 20:42 | 54.09672 | 48.09738 | 2844 ft | 217 kts | 310° |
| 2026-04-30 20:43 | 54.10670 | 48.08043 | 2717 ft | 190 kts | 334° |
| 2026-04-30 20:43 | 54.11892 | 48.07509 | 2607 ft | 177 kts | 4° |
| 2026-04-30 20:43 | 54.13032 | 48.07835 | 2462 ft | 154 kts | 28° |
| 2026-04-30 20:44 | 54.14766 | 48.09591 | 2220 ft | 137 kts | 34° |
| 2026-04-30 20:44 | 54.15569 | 48.10412 | 2097 ft | 132 kts | 35° |
| 2026-04-30 20:44 | 54.17088 | 48.11997 | 2042 ft | 123 kts | 35° |
| 2026-04-30 20:45 | 54.18544 | 48.13534 | 2044 ft | 123 kts | 35° |
| 2026-04-30 20:45 | 54.19281 | 48.14320 | 2039 ft | 124 kts | 35° |
| 2026-04-30 20:45 | 54.20025 | 48.15110 | 1892 ft | 125 kts | 35° |
| 2026-04-30 20:46 | 54.22223 | 48.17455 | 1353 ft | 124 kts | 33° |
| 2026-04-30 20:46 | 54.22965 | 48.18234 | 1116 ft | 124 kts | 32° |
| 2026-04-30 20:47 | 54.24447 | 48.19785 | 813 ft | 125 kts | 32° |
| 2026-04-30 20:47 | 54.25182 | 48.20588 | 664 ft | 125 kts | 31° |
| 2026-04-30 20:48 | 54.26650 | 48.22160 | 426 ft | 116 kts | 31° |
| 2026-04-30 20:48 | 54.27255 | 48.22809 | 407 ft | 70 kts | 31° |
| 2026-04-30 20:48 | 54.27508 | 48.23085 | 398 ft | 14 kts | 32° |
| 2026-04-30 20:48 | 54.27607 | 48.23195 | 396 ft | 19 kts | 40° |
| 2026-04-30 20:49 | 54.27655 | 48.23432 | 392 ft | 23 kts | 77° |
| 2026-04-30 20:49 | 54.27676 | 48.23586 | 392 ft | 6 kts | 77° |
| 2026-04-30 20:49 | 54.27687 | 48.23670 | 391 ft | 7 kts | 76° |
| 2026-04-30 20:50 | 54.27794 | 48.23827 | 386 ft | 12 kts | 32° |
| 2026-04-30 20:50 | 54.27876 | 48.23916 | 381 ft | 16 kts | 32° |
| 2026-04-30 20:50 | 54.27983 | 48.24029 | 376 ft | 19 kts | 31° |
| 2026-04-30 20:50 | 54.28093 | 48.24150 | 371 ft | 16 kts | 32° |
| 2026-04-30 20:51 | 54.28169 | 48.24190 | 368 ft | 11 kts | 332° |
| 2026-04-30 20:51 | 54.28276 | 48.23926 | 365 ft | 14 kts | 302° |
| 2026-04-30 20:51 | 54.28328 | 48.23786 | 365 ft | 14 kts | 302° |
| 2026-04-30 20:52 | 54.28382 | 48.23644 | 364 ft | 14 kts | 302° |
| 2026-04-30 20:52 | 54.28433 | 48.23508 | 363 ft | 3 kts | 306° |
| 2026-04-30 20:52 | 54.28448 | 48.23521 | 363 ft | 4 kts | 30° |
| 2026-04-30 20:53 | 54.28473 | 48.23546 | 362 ft | 1 kts | 31° |
| 2026-04-30 20:53 | 54.28482 | 48.23555 | 362 ft | 0 kts | 31° |